createdAt,value
2023-02-18T00:01:15.551Z,44.67
2023-02-18T00:03:42.351Z,46.92
2023-02-18T00:06:15.865Z,44.55
2023-02-18T00:08:44.181Z,18.80
2023-02-18T00:11:11.102Z,31.85
2023-02-18T00:13:37.743Z,37.70
2023-02-18T00:16:10.761Z,49.67
2023-02-18T00:18:38.465Z,29.13
2023-02-18T00:21:07.169Z,23.02
2023-02-18T00:23:34.447Z,51.15
2023-02-18T00:26:02.567Z,53.97
2023-02-18T00:28:29.133Z,28.88
2023-02-18T00:30:55.702Z,48.65
2023-02-18T00:33:22.734Z,36.35
2023-02-18T00:35:49.630Z,34.17
2023-02-18T00:38:16.793Z,38.75
2023-02-18T00:40:43.520Z,53.10
2023-02-18T00:43:10.954Z,29.13
2023-02-18T00:45:37.437Z,44.22
2023-02-18T00:48:03.995Z,30.27
2023-02-18T00:50:30.474Z,55.72
2023-02-18T00:52:56.946Z,56.83
2023-02-18T00:55:23.408Z,35.00
2023-02-18T00:57:49.862Z,41.38
2023-02-18T01:00:16.806Z,56.63
2023-02-18T01:02:43.879Z,70.13
2023-02-18T01:05:10.412Z,26.70
2023-02-18T01:07:36.860Z,48.03
2023-02-18T01:10:04.655Z,74.15
2023-02-18T01:12:31.144Z,53.50
2023-02-18T01:14:57.611Z,38.63
2023-02-18T01:17:24.104Z,59.33
2023-02-18T01:19:50.607Z,66.18
2023-02-18T01:22:17.218Z,34.10
2023-02-18T01:24:45.417Z,35.95
2023-02-18T01:27:12.873Z,68.90
2023-02-18T01:29:39.386Z,34.78
2023-02-18T01:32:06.032Z,37.35
2023-02-18T01:34:32.670Z,48.90
2023-02-18T01:37:01.208Z,33.05
2023-02-18T01:39:27.698Z,53.63
2023-02-18T01:41:54.158Z,51.25
2023-02-18T01:44:23.616Z,30.50
2023-02-18T01:46:50.359Z,56.53
2023-02-18T01:49:22.714Z,32.78
2023-02-18T01:51:54.149Z,60.50
2023-02-18T01:54:32.773Z,63.80
2023-02-18T01:57:05.207Z,28.10
2023-02-18T01:59:37.159Z,67.65
2023-02-18T02:02:06.035Z,50.28
2023-02-18T02:04:32.663Z,58.28
2023-02-18T02:06:59.293Z,38.33
2023-02-18T02:09:28.834Z,45.95
2023-02-18T02:12:10.671Z,41.28
2023-02-18T02:14:43.145Z,26.38
2023-02-18T02:17:26.983Z,58.28
2023-02-18T02:20:29.290Z,40.78
2023-02-18T02:23:23.208Z,47.28
2023-02-18T02:26:11.490Z,26.85
2023-02-18T02:29:01.395Z,42.03
2023-02-18T02:32:09.213Z,53.95
2023-02-18T02:35:06.646Z,14.88
2023-02-18T02:37:48.709Z,28.00
2023-02-18T02:40:36.750Z,39.45
2023-02-18T02:43:35.414Z,41.20
2023-02-18T02:46:19.762Z,37.22
2023-02-18T02:48:58.733Z,43.13
2023-02-18T02:51:46.913Z,25.48
2023-02-18T02:54:25.305Z,20.83
2023-02-18T02:57:25.023Z,41.10
2023-02-18T03:00:00.272Z,29.65
2023-02-18T03:05:20.407Z,31.65
2023-02-18T03:08:12.965Z,37.15
2023-02-18T03:10:56.945Z,30.23
2023-02-18T03:13:44.937Z,26.58
2023-02-18T03:16:24.115Z,32.63
2023-02-18T03:19:06.610Z,27.38
2023-02-18T03:21:39.858Z,27.67
2023-02-18T03:24:18.718Z,33.03
2023-02-18T03:26:52.428Z,41.08
2023-02-18T03:29:21.230Z,25.85
2023-02-18T03:31:52.876Z,30.58
2023-02-18T03:34:33.952Z,21.75
2023-02-18T03:37:01.584Z,22.52
2023-02-18T03:39:32.171Z,34.03
2023-02-18T03:41:58.642Z,31.55
2023-02-18T03:44:26.043Z,34.72
2023-02-18T03:46:53.187Z,38.28
2023-02-18T03:49:19.718Z,27.13
2023-02-18T03:51:47.199Z,20.73
2023-02-18T03:54:14.610Z,21.67
2023-02-18T03:56:41.332Z,36.28
2023-02-18T03:59:07.827Z,22.58
2023-02-18T04:01:35.692Z,40.22
2023-02-18T04:04:03.189Z,43.00
2023-02-18T04:06:29.769Z,55.17
2023-02-18T04:08:56.236Z,29.83
2023-02-18T04:11:22.785Z,39.80
2023-02-18T04:13:49.322Z,38.38
2023-02-18T04:16:16.055Z,34.50
2023-02-18T04:18:42.602Z,37.85
2023-02-18T04:21:09.284Z,43.55
2023-02-18T04:23:35.744Z,35.17
2023-02-18T04:26:02.222Z,35.13
2023-02-18T04:28:28.673Z,52.72
2023-02-18T04:30:55.175Z,33.72
2023-02-18T04:33:21.682Z,32.40
2023-02-18T04:35:48.134Z,24.75
2023-02-18T04:38:14.618Z,34.20
2023-02-18T04:40:41.162Z,33.17
2023-02-18T04:43:07.654Z,38.25
2023-02-18T04:45:34.233Z,26.05
2023-02-18T04:48:00.670Z,34.17
2023-02-18T04:50:27.241Z,39.45
2023-02-18T04:52:53.759Z,35.38
2023-02-18T04:55:20.193Z,43.47
2023-02-18T04:57:46.732Z,40.42
2023-02-18T05:00:18.528Z,29.98
2023-02-18T05:02:46.098Z,30.80
2023-02-18T05:05:14.270Z,31.98
2023-02-18T05:07:42.316Z,28.80
2023-02-18T05:10:11.747Z,22.60
2023-02-18T05:12:38.297Z,33.10
2023-02-18T05:15:05.198Z,22.85
2023-02-18T05:17:31.807Z,25.73
2023-02-18T05:19:58.565Z,22.05
2023-02-18T05:22:25.093Z,26.08
2023-02-18T05:24:51.576Z,19.88
2023-02-18T05:27:18.119Z,15.18
2023-02-18T05:29:44.628Z,16.38
2023-02-18T05:32:11.289Z,20.50
2023-02-18T05:34:37.761Z,15.23
2023-02-18T05:37:04.305Z,16.52
2023-02-18T05:39:30.773Z,21.42
2023-02-18T05:41:57.290Z,11.95
2023-02-18T05:44:30.390Z,17.48
2023-02-18T05:46:58.776Z,20.50
2023-02-18T05:49:25.831Z,12.05
2023-02-18T05:51:52.348Z,14.15
2023-02-18T05:54:18.814Z,16.63
2023-02-18T05:56:45.299Z,19.60
2023-02-18T05:59:11.966Z,17.85
2023-02-18T06:01:38.613Z,21.10
2023-02-18T06:04:05.218Z,11.30
2023-02-18T06:06:32.152Z,10.00
2023-02-18T06:08:58.711Z,11.15
2023-02-18T06:11:25.189Z,17.05
2023-02-18T06:13:51.683Z,10.82
2023-02-18T06:16:18.223Z,17.30
2023-02-18T06:18:44.799Z,18.67
2023-02-18T06:21:11.352Z,11.38
2023-02-18T06:23:37.953Z,20.27
2023-02-18T06:26:04.671Z,15.82
2023-02-18T06:28:31.176Z,21.95
2023-02-18T06:30:57.748Z,21.42
2023-02-18T06:33:24.348Z,10.70
2023-02-18T06:36:00.126Z,21.30
2023-02-18T06:38:27.693Z,19.55
2023-02-18T06:40:54.512Z,6.07
2023-02-18T06:43:21.281Z,10.82
2023-02-18T06:45:47.823Z,14.93
2023-02-18T06:48:14.449Z,12.73
2023-02-18T06:50:43.074Z,15.25
2023-02-18T06:53:10.105Z,16.38
2023-02-18T06:55:36.662Z,8.55
2023-02-18T06:58:03.290Z,9.70
2023-02-18T07:00:29.810Z,13.40
2023-02-18T07:02:56.273Z,15.57
2023-02-18T07:05:22.767Z,13.88
2023-02-18T07:07:49.343Z,13.57
2023-02-18T07:10:16.008Z,18.20
2023-02-18T07:12:42.545Z,12.13
2023-02-18T07:15:09.458Z,11.38
2023-02-18T07:17:35.927Z,8.57
2023-02-18T07:20:03.001Z,12.05
2023-02-18T07:22:29.445Z,11.43
2023-02-18T07:24:56.178Z,8.75
2023-02-18T07:27:23.183Z,12.07
2023-02-18T07:29:49.714Z,14.60
2023-02-18T07:32:18.087Z,6.25
2023-02-18T07:34:44.645Z,12.82
2023-02-18T07:37:12.395Z,11.43
2023-02-18T07:39:43.151Z,13.18
2023-02-18T07:42:11.423Z,11.80
2023-02-18T07:44:38.935Z,14.32
2023-02-18T07:47:06.270Z,11.13
2023-02-18T07:49:33.214Z,10.75
2023-02-18T07:51:59.847Z,4.88
2023-02-18T07:54:26.879Z,7.75
2023-02-18T07:56:54.855Z,10.77
2023-02-18T07:59:21.652Z,12.90
2023-02-18T08:01:48.223Z,12.07
2023-02-18T08:04:15.413Z,15.60
2023-02-18T08:06:47.408Z,18.50
2023-02-18T08:09:14.245Z,15.93
2023-02-18T08:11:40.753Z,12.75
2023-02-18T08:14:07.646Z,14.00
2023-02-18T08:16:34.808Z,11.30
2023-02-18T08:19:03.633Z,9.43
2023-02-18T08:21:30.896Z,11.40
2023-02-18T08:23:58.573Z,9.50
2023-02-18T08:26:25.977Z,13.82
2023-02-18T08:28:52.832Z,12.32
2023-02-18T08:31:30.057Z,6.75
2023-02-18T08:33:58.715Z,8.35
2023-02-18T08:36:25.255Z,3.20
2023-02-18T08:38:51.835Z,5.13
2023-02-18T08:41:21.419Z,6.47
2023-02-18T08:43:48.206Z,4.40
2023-02-18T08:46:15.858Z,13.40
2023-02-18T08:48:43.909Z,10.85
2023-02-18T08:51:13.273Z,8.10
2023-02-18T08:53:40.036Z,6.65
2023-02-18T08:56:08.511Z,5.97
2023-02-18T08:58:37.276Z,6.20
2023-02-18T09:01:07.060Z,12.02
2023-02-18T09:03:34.753Z,11.55
2023-02-18T09:06:01.596Z,14.57
2023-02-18T09:08:28.454Z,9.77
2023-02-18T09:10:59.336Z,13.25
2023-02-18T09:13:26.556Z,13.15
2023-02-18T09:16:06.725Z,8.35
2023-02-18T09:18:37.710Z,14.57
2023-02-18T09:21:07.593Z,12.27
2023-02-18T09:23:35.104Z,8.88
2023-02-18T09:26:04.925Z,9.90
2023-02-18T09:28:31.412Z,14.82
2023-02-18T09:30:57.969Z,10.80
2023-02-18T09:33:24.470Z,19.15
2023-02-18T09:35:50.939Z,21.42
2023-02-18T09:38:17.826Z,21.88
2023-02-18T09:40:48.616Z,18.42
2023-02-18T09:43:22.630Z,19.90
2023-02-18T09:45:51.402Z,16.80
2023-02-18T09:48:17.889Z,14.38
2023-02-18T09:50:52.368Z,16.00
2023-02-18T09:53:19.514Z,18.23
2023-02-18T09:55:46.405Z,17.55
2023-02-18T09:58:18.414Z,12.95
2023-02-18T10:00:50.610Z,16.13
2023-02-18T10:03:21.081Z,11.75
2023-02-18T10:05:58.332Z,21.23
2023-02-18T10:08:32.179Z,18.70
2023-02-18T10:10:58.685Z,22.48
2023-02-18T10:13:29.258Z,9.73
2023-02-18T10:15:56.002Z,10.23
2023-02-18T10:21:14.045Z,20.73
2023-02-18T10:23:47.363Z,21.15
2023-02-18T10:26:17.988Z,17.65
2023-02-18T10:28:45.417Z,16.08
2023-02-18T10:31:18.511Z,14.68
2023-02-18T10:33:54.370Z,7.95
2023-02-18T10:36:35.707Z,14.23
2023-02-18T10:39:25.146Z,18.42
2023-02-18T10:42:06.037Z,15.60
2023-02-18T10:44:44.260Z,9.95
2023-02-18T10:47:39.095Z,17.15
2023-02-18T10:50:42.794Z,13.23
2023-02-18T10:53:34.934Z,8.35
2023-02-18T10:56:01.998Z,16.38
2023-02-18T10:58:37.156Z,18.83
2023-02-18T11:03:42.968Z,19.85
2023-02-18T11:06:19.769Z,12.80
2023-02-18T11:08:47.091Z,21.85
2023-02-18T11:11:24.614Z,23.25
2023-02-18T11:13:57.078Z,19.38
2023-02-18T11:16:35.741Z,12.18
2023-02-18T11:19:04.324Z,17.85
2023-02-18T11:21:36.133Z,20.35
2023-02-18T11:24:20.723Z,14.20
2023-02-18T11:26:47.274Z,26.08
2023-02-18T11:29:20.054Z,10.27
2023-02-18T11:31:49.772Z,27.25
2023-02-18T11:34:32.884Z,20.20
2023-02-18T11:37:23.195Z,26.10
2023-02-18T11:39:54.201Z,24.52
2023-02-18T11:42:24.466Z,20.27
2023-02-18T11:44:59.253Z,23.67
2023-02-18T11:47:37.149Z,20.45
2023-02-18T11:50:09.623Z,25.63
2023-02-18T11:52:41.424Z,24.02
2023-02-18T11:55:27.688Z,25.63
2023-02-18T11:58:00.860Z,31.52
2023-02-18T12:00:37.096Z,16.90
2023-02-18T12:03:15.437Z,33.22
2023-02-18T12:05:44.295Z,23.08
2023-02-18T12:08:19.291Z,32.83
2023-02-18T12:11:05.187Z,17.95
2023-02-18T12:14:04.200Z,19.55
2023-02-18T12:16:54.724Z,20.25
2023-02-18T12:19:27.039Z,19.30
2023-02-18T12:22:26.716Z,27.02
2023-02-18T12:25:14.759Z,26.10
2023-02-18T12:28:00.011Z,25.00
2023-02-18T12:30:58.512Z,23.98
2023-02-18T12:33:27.658Z,29.95
2023-02-18T12:36:03.268Z,15.93
2023-02-18T12:38:55.897Z,23.35
2023-02-18T12:41:35.902Z,24.42
2023-02-18T12:44:33.820Z,25.13
2023-02-18T12:47:24.880Z,18.95
2023-02-18T12:50:19.204Z,26.60
2023-02-18T12:53:18.634Z,29.33
2023-02-18T12:56:01.311Z,25.20
2023-02-18T12:58:49.614Z,26.90
2023-02-18T13:01:38.642Z,20.52
2023-02-18T13:04:23.117Z,35.50
2023-02-18T13:07:07.127Z,36.50
2023-02-18T13:09:36.721Z,29.02
2023-02-18T13:12:11.168Z,26.70
2023-02-18T13:15:01.740Z,26.60
2023-02-18T13:17:34.008Z,26.95
2023-02-18T13:20:05.698Z,11.18
2023-02-18T13:22:33.764Z,29.88
2023-02-18T13:25:00.397Z,23.63
2023-02-18T13:27:29.653Z,27.42
2023-02-18T13:30:10.993Z,31.25
2023-02-18T13:32:48.206Z,34.15
2023-02-18T13:35:34.625Z,31.45
2023-02-18T13:38:04.172Z,29.67
2023-02-18T13:40:32.414Z,42.38
2023-02-18T13:43:20.847Z,20.30
2023-02-18T13:46:17.530Z,44.83
2023-02-18T13:48:52.611Z,46.00
2023-02-18T13:51:40.064Z,46.28
2023-02-18T13:54:13.076Z,30.08
2023-02-18T13:56:58.251Z,22.60
2023-02-18T13:59:42.854Z,36.92
2023-02-18T14:02:21.646Z,41.90
2023-02-18T14:04:55.549Z,33.85
2023-02-18T14:07:25.136Z,49.92
2023-02-18T14:09:53.770Z,40.63
2023-02-18T14:13:03.188Z,33.97
2023-02-18T14:15:29.672Z,43.25
2023-02-18T14:17:58.881Z,37.90
2023-02-18T14:20:39.484Z,26.92
2023-02-18T14:23:19.149Z,40.55
2023-02-18T14:25:57.499Z,32.03
2023-02-18T14:28:38.836Z,32.78
2023-02-18T14:31:22.130Z,45.67
2023-02-18T14:34:23.440Z,51.67
2023-02-18T14:37:24.211Z,59.53
2023-02-18T14:40:23.409Z,42.42
2023-02-18T14:42:57.214Z,50.22
2023-02-18T14:45:26.624Z,64.95
2023-02-18T14:48:08.415Z,59.33
2023-02-18T14:50:38.729Z,36.00
2023-02-18T14:53:08.303Z,38.83
2023-02-18T14:55:37.776Z,61.70
2023-02-18T14:58:32.632Z,33.95
2023-02-18T15:01:06.833Z,46.05
2023-02-18T15:03:33.453Z,62.75
2023-02-18T15:05:59.959Z,60.17
2023-02-18T15:08:26.678Z,62.42
2023-02-18T15:11:07.427Z,37.42
2023-02-18T15:13:37.086Z,44.55
2023-02-18T15:16:08.482Z,36.20
2023-02-18T15:18:42.219Z,58.17
2023-02-18T15:21:17.729Z,28.95
2023-02-18T15:23:44.299Z,57.72
2023-02-18T15:26:16.048Z,42.80
2023-02-18T15:28:54.193Z,71.65
2023-02-18T15:31:26.113Z,62.15
2023-02-18T15:33:52.690Z,61.72
2023-02-18T15:36:19.144Z,53.92
2023-02-18T15:38:45.704Z,42.05
2023-02-18T15:41:15.092Z,51.15
2023-02-18T15:44:01.477Z,35.63
2023-02-18T15:46:28.845Z,50.10
2023-02-18T15:48:57.342Z,52.60
2023-02-18T15:51:28.853Z,35.92
2023-02-18T15:54:02.616Z,41.28
2023-02-18T15:56:40.161Z,33.08
2023-02-18T15:59:20.266Z,57.00
2023-02-18T16:01:51.749Z,49.72
2023-02-18T16:04:19.971Z,45.00
2023-02-18T16:06:50.707Z,43.50
2023-02-18T16:09:30.373Z,39.90
2023-02-18T16:11:59.681Z,31.65
2023-02-18T16:14:46.358Z,20.75
2023-02-18T16:17:12.801Z,57.03
2023-02-18T16:19:46.943Z,46.95
2023-02-18T16:22:34.127Z,42.38
2023-02-18T16:25:06.922Z,26.50
2023-02-18T16:27:36.973Z,52.47
2023-02-18T16:30:17.119Z,18.38
2023-02-18T16:32:43.959Z,30.00
2023-02-18T16:35:12.152Z,46.03
2023-02-18T16:37:39.179Z,31.60
2023-02-18T16:40:39.536Z,32.22
2023-02-18T16:43:15.433Z,23.55
2023-02-18T16:45:44.839Z,25.23
2023-02-18T16:48:34.187Z,27.73
2023-02-18T16:51:13.854Z,23.95
2023-02-18T16:53:40.442Z,21.65
2023-02-18T16:56:14.453Z,34.60
2023-02-18T16:58:41.065Z,25.73
2023-02-18T17:01:19.047Z,28.17
2023-02-18T17:03:48.495Z,32.03
2023-02-18T17:06:15.839Z,12.40
2023-02-18T17:08:42.382Z,22.30
2023-02-18T17:11:25.992Z,37.03
2023-02-18T17:13:53.944Z,35.10
2023-02-18T17:16:21.529Z,29.65
2023-02-18T17:18:48.493Z,19.63
2023-02-18T17:21:18.115Z,39.75
2023-02-18T17:23:45.206Z,22.27
2023-02-18T17:26:16.229Z,27.45
2023-02-18T17:28:42.771Z,22.52
2023-02-18T17:31:15.603Z,23.00
2023-02-18T17:33:42.903Z,36.53
2023-02-18T17:36:11.741Z,19.13
2023-02-18T17:38:39.238Z,29.17
2023-02-18T17:41:06.686Z,26.95
2023-02-18T17:43:33.901Z,20.02
2023-02-18T17:46:00.744Z,29.83
2023-02-18T17:48:28.301Z,47.50
2023-02-18T17:50:54.855Z,19.67
2023-02-18T17:53:21.899Z,15.38
2023-02-18T17:55:49.384Z,29.45
2023-02-18T17:58:16.907Z,43.08
2023-02-18T18:00:47.040Z,30.75
2023-02-18T18:03:14.108Z,24.88
2023-02-18T18:05:43.342Z,28.42
2023-02-18T18:08:10.864Z,27.92
2023-02-18T18:10:40.921Z,26.23
2023-02-18T18:13:12.986Z,29.10
2023-02-18T18:15:41.959Z,25.75
2023-02-18T18:18:10.612Z,40.42
2023-02-18T18:20:38.010Z,38.25
2023-02-18T18:23:06.286Z,27.20
2023-02-18T18:25:37.348Z,15.77
2023-02-18T18:28:05.368Z,29.48
2023-02-18T18:30:35.560Z,32.33
2023-02-18T18:33:03.330Z,34.05
2023-02-18T18:35:32.799Z,11.45
2023-02-18T18:38:00.077Z,21.00
2023-02-18T18:40:29.847Z,21.60
2023-02-18T18:42:57.743Z,35.50
2023-02-18T18:45:24.262Z,19.52
2023-02-18T18:47:51.963Z,26.80
2023-02-18T18:50:20.279Z,24.20
2023-02-18T18:52:48.212Z,29.50
2023-02-18T18:55:26.881Z,44.47
2023-02-18T18:57:53.810Z,17.55
2023-02-18T19:00:24.596Z,40.15
2023-02-18T19:02:51.404Z,18.20
2023-02-18T19:05:25.951Z,28.00
2023-02-18T19:07:53.017Z,25.45
2023-02-18T19:10:20.228Z,41.95
2023-02-18T19:12:47.307Z,36.90
2023-02-18T19:15:17.206Z,31.83
2023-02-18T19:17:48.701Z,33.00
2023-02-18T19:20:17.198Z,22.48
2023-02-18T19:22:43.673Z,45.70
2023-02-18T19:25:10.487Z,39.30
2023-02-18T19:27:39.142Z,38.47
2023-02-18T19:30:07.205Z,60.47
2023-02-18T19:32:34.196Z,54.53
2023-02-18T19:35:00.824Z,31.00
2023-02-18T19:37:31.849Z,45.03
2023-02-18T19:39:58.713Z,29.73
2023-02-18T19:42:25.407Z,49.97
2023-02-18T19:44:55.581Z,35.75
2023-02-18T19:47:24.130Z,46.05
2023-02-18T19:49:51.036Z,41.72
2023-02-18T19:52:18.573Z,37.60
2023-02-18T19:55:05.480Z,37.45
2023-02-18T19:57:32.893Z,49.58
2023-02-18T19:59:59.436Z,30.60
2023-02-18T20:02:26.421Z,38.08
2023-02-18T20:04:54.719Z,45.72
2023-02-18T20:07:22.519Z,36.60
2023-02-18T20:09:53.147Z,56.13
2023-02-18T20:12:20.181Z,27.23
2023-02-18T20:14:46.874Z,23.42
2023-02-18T20:17:13.344Z,38.88
2023-02-18T20:19:40.106Z,40.58
2023-02-18T20:22:07.633Z,39.30
2023-02-18T20:24:34.352Z,32.47
2023-02-18T20:27:02.695Z,25.27
2023-02-18T20:29:29.874Z,26.58
2023-02-18T20:31:56.424Z,38.92
2023-02-18T20:34:22.979Z,38.90
2023-02-18T20:36:50.084Z,45.65
2023-02-18T20:39:17.928Z,28.05
2023-02-18T20:41:46.091Z,40.17
2023-02-18T20:44:13.113Z,31.25
2023-02-18T20:46:40.108Z,39.13
2023-02-18T20:49:08.959Z,25.73
2023-02-18T20:51:35.903Z,31.02
2023-02-18T20:54:09.193Z,36.22
2023-02-18T20:56:39.151Z,22.85
2023-02-18T20:59:05.999Z,24.38
2023-02-18T21:01:32.670Z,29.58
2023-02-18T21:03:59.243Z,34.00
2023-02-18T21:06:25.866Z,39.03
2023-02-18T21:08:54.050Z,26.42
2023-02-18T21:11:23.661Z,19.20
2023-02-18T21:13:51.880Z,28.63
2023-02-18T21:16:20.025Z,34.38
2023-02-18T21:18:46.676Z,37.72
2023-02-18T21:21:14.072Z,33.35
2023-02-18T21:23:41.029Z,23.50
2023-02-18T21:26:11.301Z,36.58
2023-02-18T21:28:39.008Z,42.67
2023-02-18T21:31:13.954Z,34.97
2023-02-18T21:33:40.531Z,29.52
2023-02-18T21:36:07.270Z,24.63
2023-02-18T21:38:34.295Z,30.75
2023-02-18T21:41:00.834Z,30.90
2023-02-18T21:43:27.326Z,38.78
2023-02-18T21:45:53.779Z,50.22
2023-02-18T21:48:38.932Z,29.67
2023-02-18T21:51:05.536Z,32.92
2023-02-18T21:53:32.032Z,32.30
2023-02-18T21:56:08.978Z,26.30
2023-02-18T21:58:35.458Z,28.70
2023-02-18T22:01:01.985Z,21.98
2023-02-18T22:03:28.466Z,30.50
2023-02-18T22:05:55.043Z,32.83
2023-02-18T22:08:25.540Z,20.85
2023-02-18T22:10:52.014Z,23.30
2023-02-18T22:13:18.503Z,24.17
2023-02-18T22:15:44.949Z,31.65
2023-02-18T22:18:11.466Z,27.08
2023-02-18T22:20:39.023Z,30.75
2023-02-18T22:23:05.541Z,19.50
2023-02-18T22:25:32.001Z,27.95
2023-02-18T22:27:58.489Z,38.05
2023-02-18T22:30:25.058Z,17.88
2023-02-18T22:32:51.541Z,38.97
2023-02-18T22:35:18.167Z,32.88
2023-02-18T22:37:44.633Z,30.02
2023-02-18T22:40:11.279Z,25.33
2023-02-18T22:42:37.822Z,35.75
2023-02-18T22:45:04.666Z,29.58
2023-02-18T22:47:31.181Z,25.75
2023-02-18T22:49:57.632Z,29.73
2023-02-18T22:52:24.160Z,26.30
2023-02-18T22:54:50.677Z,39.15
2023-02-18T22:57:17.217Z,48.35
2023-02-18T22:59:43.749Z,35.05
2023-02-18T23:02:10.394Z,39.17
2023-02-18T23:04:39.673Z,40.70
2023-02-18T23:07:06.286Z,36.97
2023-02-18T23:09:32.869Z,40.45
2023-02-18T23:11:59.507Z,36.20
2023-02-18T23:14:28.110Z,34.97
2023-02-18T23:17:15.946Z,37.70
2023-02-18T23:19:47.864Z,28.98
2023-02-18T23:22:28.570Z,25.65
2023-02-18T23:24:55.117Z,38.03
2023-02-18T23:27:23.184Z,25.13
2023-02-18T23:29:49.746Z,15.70
2023-02-18T23:32:16.705Z,31.63
2023-02-18T23:34:43.234Z,30.75
2023-02-18T23:37:10.258Z,35.88
2023-02-18T23:39:36.995Z,31.70
2023-02-18T23:42:03.623Z,26.58
2023-02-18T23:44:30.274Z,24.83
2023-02-18T23:46:56.790Z,27.35
2023-02-18T23:49:25.683Z,30.83
2023-02-18T23:51:54.154Z,35.97
2023-02-18T23:54:21.404Z,38.50
2023-02-18T23:56:48.084Z,47.63
2023-02-18T23:59:14.575Z,42.03
